createdAt,value
2023-02-16T00:00:07.530Z,17.50
2023-02-16T00:02:59.046Z,17.20
2023-02-16T00:05:51.081Z,18.40
2023-02-16T00:08:42.507Z,17.80
2023-02-16T00:11:54.085Z,18.50
2023-02-16T00:14:52.538Z,15.30
2023-02-16T00:17:45.599Z,15.60
2023-02-16T00:20:36.303Z,17.70
2023-02-16T00:23:27.744Z,18.20
2023-02-16T00:26:24.006Z,16.30
2023-02-16T00:29:21.339Z,17.10
2023-02-16T00:32:14.330Z,15.30
2023-02-16T00:35:14.747Z,15.90
2023-02-16T00:38:08.576Z,18.00
2023-02-16T00:41:00.334Z,17.50
2023-02-16T00:43:51.472Z,17.60
2023-02-16T00:46:44.699Z,16.70
2023-02-16T00:49:36.286Z,15.40
2023-02-16T00:52:35.948Z,16.80
2023-02-16T00:55:28.791Z,18.10
2023-02-16T00:58:27.504Z,17.50
2023-02-16T01:01:30.924Z,18.40
2023-02-16T01:04:26.536Z,17.70
2023-02-16T01:07:37.282Z,16.80
2023-02-16T01:10:56.871Z,16.90
2023-02-16T01:13:51.530Z,16.70
2023-02-16T01:16:45.161Z,17.60
2023-02-16T01:19:38.722Z,17.10
2023-02-16T01:22:33.749Z,16.80
2023-02-16T01:25:25.997Z,18.90
2023-02-16T01:28:22.878Z,18.10
2023-02-16T01:31:15.258Z,17.80
2023-02-16T01:34:06.146Z,17.50
2023-02-16T01:36:57.625Z,17.20
2023-02-16T01:39:49.176Z,16.80
2023-02-16T01:42:54.257Z,16.90
2023-02-16T01:45:48.371Z,15.10
2023-02-16T01:48:41.704Z,16.60
2023-02-16T01:51:44.905Z,15.90
2023-02-16T01:54:46.246Z,15.20
2023-02-16T01:57:46.787Z,17.50
2023-02-16T02:01:05.559Z,15.30
2023-02-16T02:04:15.692Z,16.90
2023-02-16T02:07:09.315Z,17.00
2023-02-16T02:10:09.546Z,16.90
2023-02-16T02:13:06.956Z,18.40
2023-02-16T02:16:02.330Z,18.60
2023-02-16T02:18:55.093Z,18.20
2023-02-16T02:22:27.136Z,18.00
2023-02-16T02:25:48.336Z,18.50
2023-02-16T02:28:49.345Z,18.20
2023-02-16T02:31:58.732Z,18.20
2023-02-16T02:35:08.629Z,15.90
2023-02-16T02:38:05.659Z,15.60
2023-02-16T02:41:07.520Z,15.30
2023-02-16T02:44:08.171Z,15.70
2023-02-16T02:47:02.752Z,16.80
2023-02-16T02:49:57.573Z,16.80
2023-02-16T02:52:48.439Z,16.70
2023-02-16T02:55:59.014Z,15.80
2023-02-16T02:59:13.672Z,14.20
2023-02-16T03:02:05.942Z,15.70
2023-02-16T03:04:59.551Z,15.70
2023-02-16T03:07:57.758Z,14.00
2023-02-16T03:11:10.761Z,14.10
2023-02-16T03:14:06.279Z,13.00
2023-02-16T03:17:19.755Z,12.50
2023-02-16T03:20:34.101Z,15.00
2023-02-16T03:23:43.642Z,14.50
2023-02-16T03:26:55.852Z,15.80
2023-02-16T03:29:49.902Z,14.40
2023-02-16T03:32:43.002Z,14.10
2023-02-16T03:35:34.222Z,14.70
2023-02-16T03:38:25.864Z,15.00
2023-02-16T03:41:24.919Z,13.50
2023-02-16T03:44:16.967Z,13.40
2023-02-16T03:47:11.243Z,12.30
2023-02-16T03:50:02.400Z,14.40
2023-02-16T03:53:07.233Z,13.80
2023-02-16T03:55:59.077Z,13.50
2023-02-16T03:58:51.945Z,13.40
2023-02-16T04:01:43.774Z,13.40
2023-02-16T04:04:35.875Z,12.70
2023-02-16T04:07:27.204Z,13.50
2023-02-16T04:10:19.605Z,13.60
2023-02-16T04:13:10.953Z,14.60
2023-02-16T04:16:02.612Z,14.40
2023-02-16T04:18:57.556Z,14.50
2023-02-16T04:21:48.867Z,14.20
2023-02-16T04:24:40.487Z,13.90
2023-02-16T04:27:32.651Z,15.30
2023-02-16T04:30:26.454Z,14.70
2023-02-16T04:33:17.953Z,14.00
2023-02-16T04:36:11.658Z,12.60
2023-02-16T04:39:02.862Z,13.40
2023-02-16T04:41:54.729Z,12.90
2023-02-16T04:44:48.230Z,13.90
2023-02-16T04:47:39.559Z,12.60
2023-02-16T04:50:32.440Z,14.00
2023-02-16T04:53:23.994Z,18.00
2023-02-16T04:56:16.312Z,16.20
2023-02-16T04:59:11.147Z,14.70
2023-02-16T05:02:02.642Z,14.70
2023-02-16T05:04:54.107Z,14.90
2023-02-16T05:07:45.228Z,13.60
2023-02-16T05:10:36.896Z,15.20
2023-02-16T05:13:45.074Z,13.80
2023-02-16T05:16:36.070Z,14.40
2023-02-16T05:19:27.587Z,16.30
2023-02-16T05:22:20.899Z,14.70
2023-02-16T05:25:13.169Z,14.70
2023-02-16T05:28:03.884Z,13.10
2023-02-16T05:30:59.482Z,13.40
2023-02-16T05:33:50.510Z,13.00
2023-02-16T05:36:41.882Z,13.30
2023-02-16T05:39:37.302Z,13.10
2023-02-16T05:42:29.330Z,14.70
2023-02-16T05:45:21.399Z,13.60
2023-02-16T05:48:14.832Z,14.40
2023-02-16T05:51:07.159Z,13.90
2023-02-16T05:53:59.342Z,14.90
2023-02-16T05:56:52.537Z,14.90
2023-02-16T05:59:43.375Z,15.80
2023-02-16T06:02:36.535Z,16.80
2023-02-16T06:05:27.489Z,16.40
2023-02-16T06:08:18.717Z,15.00
2023-02-16T06:11:30.702Z,18.70
2023-02-16T06:14:22.856Z,15.00
2023-02-16T06:17:15.685Z,15.70
2023-02-16T06:20:08.287Z,17.50
2023-02-16T06:22:59.154Z,15.40
2023-02-16T06:25:54.235Z,17.10
2023-02-16T06:28:45.327Z,17.60
2023-02-16T06:31:39.455Z,16.50
2023-02-16T06:34:30.555Z,20.90
2023-02-16T06:37:22.531Z,17.90
2023-02-16T06:40:16.357Z,16.00
2023-02-16T06:43:07.305Z,18.60
2023-02-16T06:46:00.107Z,15.10
2023-02-16T06:48:50.818Z,14.70
2023-02-16T06:51:42.411Z,15.10
2023-02-16T06:54:32.956Z,16.80
2023-02-16T06:57:25.597Z,14.20
2023-02-16T07:00:19.043Z,14.20
2023-02-16T07:03:10.831Z,16.40
2023-02-16T07:06:02.257Z,17.00
2023-02-16T07:08:55.824Z,16.40
2023-02-16T07:11:47.415Z,20.60
2023-02-16T07:14:37.687Z,14.80
2023-02-16T07:17:28.599Z,14.20
2023-02-16T07:20:19.684Z,13.70
2023-02-16T07:23:11.371Z,16.60
2023-02-16T07:26:02.230Z,16.60
2023-02-16T07:28:53.979Z,18.40
2023-02-16T07:31:47.315Z,17.50
2023-02-16T07:34:41.718Z,16.80
2023-02-16T07:37:33.240Z,17.20
2023-02-16T07:40:23.987Z,14.50
2023-02-16T07:43:15.265Z,16.60
2023-02-16T07:46:07.901Z,17.70
2023-02-16T07:49:00.164Z,17.70
2023-02-16T07:51:50.888Z,15.70
2023-02-16T07:54:41.812Z,14.70
2023-02-16T07:57:33.454Z,18.00
2023-02-16T08:00:24.870Z,15.50
2023-02-16T08:03:18.654Z,14.40
2023-02-16T08:06:10.432Z,14.60
2023-02-16T08:09:01.728Z,15.70
2023-02-16T08:11:54.693Z,16.20
2023-02-16T08:14:49.660Z,16.90
2023-02-16T08:17:40.594Z,17.20
2023-02-16T08:20:46.038Z,19.40
2023-02-16T08:23:44.025Z,17.70
2023-02-16T08:26:39.507Z,18.60
2023-02-16T08:29:31.005Z,15.60
2023-02-16T08:32:21.672Z,14.70
2023-02-16T08:35:13.968Z,16.80
2023-02-16T08:38:04.776Z,17.30
2023-02-16T08:40:56.335Z,16.20
2023-02-16T08:43:47.320Z,16.80
2023-02-16T08:46:40.478Z,18.40
2023-02-16T08:49:31.560Z,17.10
2023-02-16T08:52:22.588Z,18.00
2023-02-16T08:55:18.328Z,17.40
2023-02-16T08:58:12.571Z,16.30
2023-02-16T09:01:08.824Z,17.80
2023-02-16T09:03:59.227Z,16.10
2023-02-16T09:06:50.537Z,15.80
2023-02-16T09:09:42.792Z,17.70
2023-02-16T09:12:35.580Z,19.00
2023-02-16T09:15:27.017Z,20.10
2023-02-16T09:18:18.437Z,17.40
2023-02-16T09:21:12.081Z,18.60
2023-02-16T09:24:05.420Z,17.40
2023-02-16T09:26:57.164Z,19.40
2023-02-16T09:29:51.919Z,17.70
2023-02-16T09:32:44.175Z,16.60
2023-02-16T09:35:35.297Z,23.00
2023-02-16T09:38:30.209Z,20.70
2023-02-16T09:41:29.554Z,20.90
2023-02-16T09:44:31.340Z,17.40
2023-02-16T09:47:29.734Z,16.10
2023-02-16T09:50:50.391Z,16.00
2023-02-16T09:53:39.837Z,14.70
2023-02-16T09:56:37.787Z,13.90
2023-02-16T09:59:49.965Z,16.60
2023-02-16T10:02:51.667Z,15.30
2023-02-16T10:05:49.300Z,18.30
2023-02-16T10:08:46.091Z,12.80
2023-02-16T10:11:42.195Z,13.20
2023-02-16T10:14:38.923Z,16.50
2023-02-16T10:17:43.183Z,12.60
2023-02-16T10:20:39.085Z,14.00
2023-02-16T10:23:43.603Z,10.50
2023-02-16T10:26:39.771Z,6.10
2023-02-16T10:29:31.389Z,5.10
2023-02-16T10:32:31.042Z,7.00
2023-02-16T10:35:27.540Z,5.30
2023-02-16T10:38:30.210Z,6.80
2023-02-16T10:41:33.082Z,4.50
2023-02-16T10:44:29.659Z,5.50
2023-02-16T10:47:31.650Z,4.80
2023-02-16T10:50:28.144Z,5.30
2023-02-16T10:53:23.740Z,5.10
2023-02-16T10:56:32.603Z,5.30
2023-02-16T10:59:25.952Z,5.90
2023-02-16T11:02:24.983Z,8.10
2023-02-16T11:05:38.325Z,6.20
2023-02-16T11:08:48.225Z,3.80
2023-02-16T11:11:42.745Z,6.00
2023-02-16T11:14:34.508Z,6.30
2023-02-16T11:17:27.074Z,5.50
2023-02-16T11:20:31.457Z,5.90
2023-02-16T11:23:28.879Z,6.00
2023-02-16T11:26:29.109Z,6.90
2023-02-16T11:29:23.112Z,6.90
2023-02-16T11:32:17.250Z,6.50
2023-02-16T11:35:17.770Z,6.00
2023-02-16T11:38:08.565Z,4.90
2023-02-16T11:40:59.850Z,6.20
2023-02-16T11:43:50.656Z,5.60
2023-02-16T11:46:44.983Z,5.40
2023-02-16T11:49:39.068Z,7.00
2023-02-16T11:52:33.000Z,6.40
2023-02-16T11:55:28.243Z,6.20
2023-02-16T11:58:21.909Z,7.40
2023-02-16T12:01:26.018Z,7.50
2023-02-16T12:04:32.875Z,7.70
2023-02-16T12:07:36.294Z,5.90
2023-02-16T12:10:32.435Z,6.40
2023-02-16T12:13:30.812Z,7.80
2023-02-16T12:16:31.856Z,7.60
2023-02-16T12:19:34.309Z,6.60
2023-02-16T12:22:34.472Z,7.50
2023-02-16T12:25:33.535Z,7.60
2023-02-16T12:28:36.452Z,8.40
2023-02-16T12:31:35.264Z,8.80
2023-02-16T12:34:35.240Z,7.50
2023-02-16T12:37:36.337Z,8.30
2023-02-16T12:40:44.534Z,7.10
2023-02-16T12:43:42.265Z,5.40
2023-02-16T12:46:39.819Z,7.40
2023-02-16T12:49:40.525Z,6.90
2023-02-16T12:52:40.321Z,6.70
2023-02-16T12:55:38.436Z,8.70
2023-02-16T12:58:34.069Z,7.70
2023-02-16T13:01:27.285Z,6.50
2023-02-16T13:04:26.515Z,9.00
2023-02-16T13:07:22.995Z,7.20
2023-02-16T13:10:24.665Z,7.30
2023-02-16T13:13:19.114Z,5.10
2023-02-16T13:16:29.465Z,7.10
2023-02-16T13:19:20.789Z,7.70
2023-02-16T13:22:48.801Z,6.00
2023-02-16T13:26:02.414Z,6.00
2023-02-16T13:29:30.389Z,9.40
2023-02-16T13:32:37.761Z,6.60
2023-02-16T13:36:06.628Z,7.40
2023-02-16T13:39:22.748Z,6.10
2023-02-16T13:42:52.201Z,9.40
2023-02-16T13:45:47.643Z,7.00
2023-02-16T13:48:47.472Z,6.60
2023-02-16T13:51:47.560Z,5.60
2023-02-16T13:54:40.717Z,6.10
2023-02-16T13:58:00.302Z,7.20
2023-02-16T14:00:53.316Z,5.80
2023-02-16T14:03:46.188Z,7.50
2023-02-16T14:06:38.590Z,6.40
2023-02-16T14:09:48.545Z,8.10
2023-02-16T14:12:43.204Z,8.10
2023-02-16T14:15:34.391Z,6.80
2023-02-16T14:18:34.598Z,6.90
2023-02-16T14:21:34.244Z,8.30
2023-02-16T14:24:34.072Z,7.70
2023-02-16T14:27:48.107Z,10.00
2023-02-16T14:30:50.216Z,7.30
2023-02-16T14:33:46.329Z,7.40
2023-02-16T14:36:57.761Z,6.70
2023-02-16T14:40:07.321Z,6.40
2023-02-16T14:43:05.201Z,5.90
2023-02-16T14:46:32.479Z,7.00
2023-02-16T14:50:04.001Z,7.00
2023-02-16T14:53:24.137Z,8.60
2023-02-16T14:56:35.557Z,5.60
2023-02-16T14:59:33.797Z,5.70
2023-02-16T15:02:35.129Z,8.00
2023-02-16T15:05:33.222Z,5.10
2023-02-16T15:08:25.859Z,7.20
2023-02-16T15:11:26.015Z,7.20
2023-02-16T15:14:19.434Z,7.30
2023-02-16T15:17:11.972Z,5.20
2023-02-16T15:20:17.807Z,9.50
2023-02-16T15:23:18.238Z,6.30
2023-02-16T15:26:19.657Z,6.00
2023-02-16T15:29:26.596Z,6.40
2023-02-16T15:32:20.044Z,7.10
2023-02-16T15:35:27.646Z,7.40
2023-02-16T15:38:31.769Z,7.20
2023-02-16T15:41:30.522Z,8.40
2023-02-16T15:44:35.963Z,7.90
2023-02-16T15:47:27.752Z,7.20
2023-02-16T15:50:20.112Z,7.30
2023-02-16T15:53:15.427Z,7.80
2023-02-16T15:56:17.848Z,7.50
2023-02-16T15:59:33.553Z,8.50
2023-02-16T16:02:34.125Z,10.10
2023-02-16T16:05:28.364Z,11.90
2023-02-16T16:08:19.792Z,9.20
2023-02-16T16:11:11.142Z,10.50
2023-02-16T16:14:02.016Z,11.60
2023-02-16T16:16:54.215Z,12.30
2023-02-16T16:19:44.931Z,15.70
2023-02-16T16:22:38.796Z,12.70
2023-02-16T16:25:39.318Z,13.10
2023-02-16T16:28:39.701Z,12.30
2023-02-16T16:31:41.629Z,14.60
2023-02-16T16:34:38.569Z,14.40
2023-02-16T16:37:33.085Z,15.80
2023-02-16T16:40:33.951Z,18.90
2023-02-16T16:43:28.793Z,13.60
2023-02-16T16:46:26.258Z,16.50
2023-02-16T16:49:19.397Z,15.80
2023-02-16T16:52:14.070Z,14.50
2023-02-16T16:55:17.500Z,13.90
2023-02-16T16:58:09.665Z,14.20
2023-02-16T17:01:00.544Z,17.50
2023-02-16T17:03:51.041Z,12.10
2023-02-16T17:06:42.169Z,16.40
2023-02-16T17:09:32.876Z,14.50
2023-02-16T17:12:25.420Z,14.80
2023-02-16T17:15:29.707Z,14.70
2023-02-16T17:18:21.783Z,13.00
2023-02-16T17:21:14.491Z,15.60
2023-02-16T17:24:07.467Z,14.80
2023-02-16T17:26:59.060Z,12.30
2023-02-16T17:29:50.147Z,12.70
2023-02-16T17:32:41.298Z,12.20
2023-02-16T17:35:32.552Z,13.40
2023-02-16T17:38:25.223Z,14.50
2023-02-16T17:41:23.125Z,12.50
2023-02-16T17:44:13.730Z,13.80
2023-02-16T17:47:05.318Z,15.10
2023-02-16T17:49:56.196Z,13.60
2023-02-16T17:52:57.394Z,15.50
2023-02-16T17:55:49.589Z,13.50
2023-02-16T17:58:40.436Z,14.00
2023-02-16T18:01:31.395Z,13.20
2023-02-16T18:04:22.627Z,11.90
2023-02-16T18:07:18.219Z,15.80
2023-02-16T18:10:16.897Z,15.60
2023-02-16T18:13:09.973Z,14.10
2023-02-16T18:16:04.245Z,15.80
2023-02-16T18:18:57.499Z,17.90
2023-02-16T18:21:48.925Z,13.00
2023-02-16T18:24:40.470Z,15.10
2023-02-16T18:27:34.859Z,12.00
2023-02-16T18:30:29.489Z,13.50
2023-02-16T18:33:22.855Z,14.70
2023-02-16T18:36:14.598Z,12.90
2023-02-16T18:39:09.964Z,12.90
2023-02-16T18:42:01.267Z,15.20
2023-02-16T18:44:52.311Z,15.90
2023-02-16T18:47:45.709Z,14.90
2023-02-16T18:50:37.649Z,15.90
2023-02-16T18:53:29.349Z,13.50
2023-02-16T18:56:20.999Z,15.60
2023-02-16T18:59:11.860Z,13.00
2023-02-16T19:02:03.439Z,14.30
2023-02-16T19:04:54.696Z,14.60
2023-02-16T19:07:45.911Z,13.00
2023-02-16T19:10:37.362Z,16.70
2023-02-16T19:13:29.096Z,14.80
2023-02-16T19:16:26.165Z,15.80
2023-02-16T19:19:17.556Z,14.40
2023-02-16T19:22:08.939Z,18.00
2023-02-16T19:25:00.915Z,16.20
2023-02-16T19:27:51.850Z,14.90
2023-02-16T19:30:43.491Z,16.00
2023-02-16T19:33:35.505Z,17.40
2023-02-16T19:36:33.372Z,17.00
2023-02-16T19:39:24.652Z,17.30
2023-02-16T19:42:18.336Z,19.10
2023-02-16T19:45:11.231Z,19.70
2023-02-16T19:48:02.133Z,21.60
2023-02-16T19:50:59.725Z,21.30
2023-02-16T19:53:51.920Z,20.10
2023-02-16T19:56:43.178Z,22.20
2023-02-16T19:59:34.983Z,19.60
2023-02-16T20:02:25.995Z,19.70
2023-02-16T20:05:19.621Z,21.30
2023-02-16T20:08:10.692Z,22.20
2023-02-16T20:11:01.412Z,26.20
2023-02-16T20:13:54.234Z,23.00
2023-02-16T20:16:45.808Z,21.50
2023-02-16T20:19:36.795Z,22.10
2023-02-16T20:22:28.488Z,22.90
2023-02-16T20:25:19.798Z,22.30
2023-02-16T20:28:11.381Z,23.50
2023-02-16T20:31:02.860Z,23.20
2023-02-16T20:33:55.474Z,22.90
2023-02-16T20:36:47.189Z,24.40
2023-02-16T20:39:38.605Z,21.90
2023-02-16T20:42:29.585Z,23.80
2023-02-16T20:45:22.380Z,24.70
2023-02-16T20:48:14.889Z,25.50
2023-02-16T20:51:09.981Z,29.30
2023-02-16T20:54:04.111Z,24.60
2023-02-16T20:56:55.460Z,22.30
2023-02-16T20:59:47.842Z,21.40
2023-02-16T21:02:40.945Z,21.70
2023-02-16T21:05:41.929Z,21.50
2023-02-16T21:08:32.614Z,21.40
2023-02-16T21:11:24.426Z,21.80
2023-02-16T21:14:16.760Z,20.30
2023-02-16T21:17:08.287Z,17.10
2023-02-16T21:20:02.741Z,16.10
2023-02-16T21:22:53.849Z,14.20
2023-02-16T21:25:45.253Z,14.10
2023-02-16T21:28:38.716Z,16.00
2023-02-16T21:31:30.161Z,15.50
2023-02-16T21:34:24.103Z,18.30
2023-02-16T21:37:15.578Z,18.00
2023-02-16T21:40:25.299Z,19.10
2023-02-16T21:43:17.452Z,15.80
2023-02-16T21:46:09.706Z,15.70
2023-02-16T21:49:01.163Z,18.60
2023-02-16T21:51:52.386Z,18.50
2023-02-16T21:55:08.519Z,17.50
2023-02-16T21:58:02.504Z,17.70
2023-02-16T22:00:57.126Z,19.20
2023-02-16T22:03:49.198Z,18.00
2023-02-16T22:06:47.050Z,19.10
2023-02-16T22:09:38.691Z,20.40
2023-02-16T22:12:29.341Z,18.70
2023-02-16T22:15:21.153Z,17.50
2023-02-16T22:18:12.234Z,19.60
2023-02-16T22:21:07.968Z,17.40
2023-02-16T22:24:01.341Z,18.90
2023-02-16T22:26:53.362Z,15.70
2023-02-16T22:29:45.894Z,16.20
2023-02-16T22:32:37.644Z,15.20
2023-02-16T22:35:29.045Z,16.30
2023-02-16T22:38:26.142Z,16.00
2023-02-16T22:41:16.620Z,15.30
2023-02-16T22:44:11.317Z,15.30
2023-02-16T22:47:02.269Z,14.90
2023-02-16T22:49:59.901Z,14.30
2023-02-16T22:52:51.274Z,12.30
2023-02-16T22:55:44.502Z,11.30
2023-02-16T22:58:35.257Z,11.90
2023-02-16T23:01:27.915Z,14.40
2023-02-16T23:04:25.939Z,12.80
2023-02-16T23:07:18.295Z,13.70
2023-02-16T23:10:12.025Z,12.60
2023-02-16T23:13:02.904Z,11.90
2023-02-16T23:15:54.484Z,14.10
2023-02-16T23:18:46.217Z,14.60
2023-02-16T23:21:42.511Z,15.10
2023-02-16T23:24:33.626Z,14.70
2023-02-16T23:27:25.010Z,13.10
2023-02-16T23:30:17.233Z,13.00
2023-02-16T23:33:10.559Z,12.80
2023-02-16T23:36:01.405Z,12.40
2023-02-16T23:38:52.929Z,12.70
2023-02-16T23:41:44.818Z,14.00
2023-02-16T23:44:37.749Z,13.40
2023-02-16T23:47:29.645Z,13.40
2023-02-16T23:50:25.363Z,14.00
2023-02-16T23:53:17.091Z,14.30
2023-02-16T23:56:10.763Z,13.50
2023-02-16T23:59:05.041Z,14.90
